McDonald, Pennsylvania
Current Conditions -  °F | °C
As of 5:51 AM on Thursday 23 Oct 2014 (Local Time) from KPIT Reporting Station
Broken Clouds Broken Clouds  
Wind Chill: 40°   Ceiling: 1800
Heat Index: 46°   Visibility: 10mi
Dew Point: 42°   Wind: 15mph
Humidity: 86%   Direction: 320°NW
Pressure: 30.13"   Gusts: NA
Location:  40.37°N, 80.23°W
Report Text: KPIT 230951Z 32013KT 10SM BKN018 08/06 A3013 RMK AO2 SLP215 BKN V SCT T00780056
Loading
Personal Weather Stations






























Interactive Weather Map
Tropical Storm Tracking
New forecast layout! Learn more

10-Day Weather Forecast

Advertisements
Track Severe Weather on mobile